APJ272 ROAH-RJCC
Flight info
| Callsign | APJ272 |
|---|---|
| Flight time | 2h 41m |
| Altitude | 35000 |
| Route | AMAMI Y25 BOMAP Y45 MARCO Y141 SAMON Y14 GOLDO Y19 MRE Y13 SIRAO Y139 NAVER |
| Aircraft | A320/M-SDE3FGHIRWY/LB1 |
Departure
| Time | 2026-04-14 10:33 |
|---|---|
| Airport | Naha International Airport (ROAH) |
Arrival
| Time | 2026-04-14 13:14 |
|---|---|
| Airport | New Chitose Airport (RJCC) |
| Time | Latitude | Longitude | Altitude | Speed | Heading |
|---|---|---|---|---|---|
| 2026-04-14 09:59 | 26.21516 | 127.64954 | 22 ft | 0 kts | 133° |
| 2026-04-14 10:22 | 26.21530 | 127.64938 | 24 ft | 4 kts | 133° |
| 2026-04-14 10:22 | 26.21547 | 127.64917 | 24 ft | 4 kts | 133° |
| 2026-04-14 10:22 | 26.21568 | 127.64900 | 21 ft | 4 kts | 174° |
| 2026-04-14 10:23 | 26.21590 | 127.64906 | 21 ft | 3 kts | 222° |
| 2026-04-14 10:23 | 26.21593 | 127.64908 | 21 ft | 0 kts | 224° |
| 2026-04-14 10:27 | 26.21589 | 127.64904 | 20 ft | 1 kts | 224° |
| 2026-04-14 10:27 | 26.21579 | 127.64893 | 20 ft | 2 kts | 224° |
| 2026-04-14 10:28 | 26.21569 | 127.64883 | 20 ft | 3 kts | 224° |
| 2026-04-14 10:28 | 26.21546 | 127.64858 | 20 ft | 6 kts | 224° |
| 2026-04-14 10:28 | 26.21505 | 127.64815 | 20 ft | 10 kts | 224° |
| 2026-04-14 10:28 | 26.21451 | 127.64758 | 21 ft | 11 kts | 222° |
| 2026-04-14 10:29 | 26.21377 | 127.64739 | 21 ft | 11 kts | 181° |
| 2026-04-14 10:29 | 26.21295 | 127.64740 | 20 ft | 13 kts | 178° |
| 2026-04-14 10:29 | 26.21198 | 127.64744 | 19 ft | 15 kts | 178° |
| 2026-04-14 10:29 | 26.21088 | 127.64748 | 17 ft | 16 kts | 178° |
| 2026-04-14 10:30 | 26.21017 | 127.64748 | 18 ft | 9 kts | 191° |
| 2026-04-14 10:30 | 26.20977 | 127.64699 | 17 ft | 10 kts | 261° |
| 2026-04-14 10:30 | 26.20978 | 127.64622 | 16 ft | 7 kts | 266° |
| 2026-04-14 10:30 | 26.20977 | 127.64615 | 16 ft | 0 kts | 264° |
| 2026-04-14 10:31 | 26.20976 | 127.64610 | 16 ft | 2 kts | 263° |
| 2026-04-14 10:31 | 26.20970 | 127.64589 | 16 ft | 4 kts | 249° |
| 2026-04-14 10:31 | 26.20952 | 127.64554 | 17 ft | 6 kts | 230° |
| 2026-04-14 10:32 | 26.20908 | 127.64529 | 17 ft | 8 kts | 193° |
| 2026-04-14 10:32 | 26.20844 | 127.64528 | 18 ft | 10 kts | 176° |
| 2026-04-14 10:32 | 26.20654 | 127.64535 | 19 ft | 61 kts | 179° |
| 2026-04-14 10:32 | 26.19968 | 127.64567 | 15 ft | 133 kts | 177° |
| 2026-04-14 10:33 | 26.18877 | 127.64617 | 246 ft | 166 kts | 181° |
| 2026-04-14 10:33 | 26.17757 | 127.64681 | 1090 ft | 162 kts | 181° |
| 2026-04-14 10:33 | 26.16619 | 127.64741 | 1821 ft | 165 kts | 182° |
| 2026-04-14 10:33 | 26.15426 | 127.64795 | 2140 ft | 181 kts | 182° |
| 2026-04-14 10:34 | 26.12583 | 127.64918 | 2574 ft | 229 kts | 181° |
| 2026-04-14 10:34 | 26.10898 | 127.64992 | 2872 ft | 253 kts | 181° |
| 2026-04-14 10:34 | 26.09095 | 127.65075 | 3446 ft | 263 kts | 181° |
| 2026-04-14 10:35 | 26.07262 | 127.65361 | 4173 ft | 273 kts | 163° |
| 2026-04-14 10:35 | 26.05622 | 127.66474 | 4885 ft | 284 kts | 136° |
| 2026-04-14 10:35 | 26.04600 | 127.68330 | 5575 ft | 292 kts | 108° |
| 2026-04-14 10:35 | 26.04465 | 127.70582 | 6274 ft | 297 kts | 78° |
| 2026-04-14 10:36 | 26.05251 | 127.72703 | 6917 ft | 299 kts | 59° |
| 2026-04-14 10:36 | 26.06279 | 127.74729 | 7614 ft | 302 kts | 58° |
| 2026-04-14 10:36 | 26.07321 | 127.76761 | 8302 ft | 304 kts | 58° |
| 2026-04-14 10:36 | 26.08377 | 127.78816 | 8983 ft | 307 kts | 58° |
| 2026-04-14 10:37 | 26.09439 | 127.80893 | 9672 ft | 310 kts | 58° |
| 2026-04-14 10:37 | 26.10508 | 127.82997 | 10240 ft | 318 kts | 58° |
| 2026-04-14 10:37 | 26.11647 | 127.85212 | 10371 ft | 340 kts | 55° |
| 2026-04-14 10:37 | 26.13232 | 127.87184 | 10485 ft | 355 kts | 34° |
| 2026-04-14 10:38 | 26.15322 | 127.88759 | 10604 ft | 373 kts | 30° |
| 2026-04-14 10:38 | 26.17549 | 127.90367 | 10770 ft | 389 kts | 29° |
| 2026-04-14 10:38 | 26.19845 | 127.92012 | 11210 ft | 395 kts | 30° |
| 2026-04-14 10:38 | 26.22171 | 127.93683 | 11726 ft | 400 kts | 29° |
| 2026-04-14 10:39 | 26.24518 | 127.95374 | 12247 ft | 404 kts | 30° |
| 2026-04-14 10:39 | 26.26885 | 127.97086 | 12771 ft | 407 kts | 30° |
| 2026-04-14 10:39 | 26.29265 | 127.98809 | 13281 ft | 410 kts | 29° |
| 2026-04-14 10:39 | 26.31639 | 128.00530 | 13761 ft | 414 kts | 29° |
| 2026-04-14 10:40 | 26.34065 | 128.02293 | 14190 ft | 418 kts | 29° |
| 2026-04-14 10:40 | 26.36510 | 128.04068 | 14596 ft | 421 kts | 29° |
| 2026-04-14 10:40 | 26.38975 | 128.05856 | 14997 ft | 424 kts | 29° |
| 2026-04-14 10:40 | 26.41455 | 128.07659 | 15390 ft | 427 kts | 29° |
| 2026-04-14 10:41 | 26.43956 | 128.09478 | 15783 ft | 430 kts | 29° |
| 2026-04-14 10:41 | 26.46472 | 128.11307 | 16167 ft | 433 kts | 29° |
| 2026-04-14 10:41 | 26.49006 | 128.13149 | 16552 ft | 436 kts | 28° |
| 2026-04-14 10:41 | 26.51525 | 128.14982 | 16904 ft | 440 kts | 28° |
| 2026-04-14 10:42 | 26.54096 | 128.16852 | 17248 ft | 443 kts | 28° |
| 2026-04-14 10:42 | 26.56685 | 128.18738 | 17594 ft | 446 kts | 28° |
| 2026-04-14 10:42 | 26.59292 | 128.20636 | 17940 ft | 448 kts | 28° |
| 2026-04-14 10:42 | 26.61910 | 128.22546 | 18273 ft | 451 kts | 28° |
| 2026-04-14 10:43 | 26.64541 | 128.24469 | 18654 ft | 450 kts | 28° |
| 2026-04-14 10:43 | 26.67115 | 128.26358 | 19459 ft | 438 kts | 28° |
| 2026-04-14 10:43 | 26.69653 | 128.28221 | 19951 ft | 436 kts | 28° |
| 2026-04-14 10:43 | 26.72196 | 128.30081 | 20311 ft | 438 kts | 27° |
| 2026-04-14 10:44 | 26.74720 | 128.31926 | 20634 ft | 440 kts | 28° |
| 2026-04-14 10:44 | 26.77288 | 128.33802 | 20984 ft | 442 kts | 28° |
| 2026-04-14 10:44 | 26.79867 | 128.35689 | 21327 ft | 444 kts | 28° |
| 2026-04-14 10:44 | 26.82458 | 128.37584 | 21662 ft | 446 kts | 28° |
| 2026-04-14 10:45 | 26.85060 | 128.39488 | 21988 ft | 448 kts | 28° |
| 2026-04-14 10:45 | 26.87676 | 128.41406 | 22328 ft | 450 kts | 28° |
| 2026-04-14 10:45 | 26.90308 | 128.43338 | 22621 ft | 454 kts | 28° |
| 2026-04-14 10:45 | 26.92951 | 128.45281 | 22952 ft | 456 kts | 28° |
| 2026-04-14 10:46 | 26.95611 | 128.47237 | 23266 ft | 458 kts | 28° |
| 2026-04-14 10:46 | 26.98285 | 128.49203 | 23564 ft | 461 kts | 28° |
| 2026-04-14 10:46 | 27.00931 | 128.51148 | 23814 ft | 463 kts | 28° |
| 2026-04-14 10:46 | 27.03628 | 128.53131 | 24070 ft | 465 kts | 28° |
| 2026-04-14 10:47 | 27.06337 | 128.55124 | 24322 ft | 466 kts | 28° |
| 2026-04-14 10:47 | 27.09056 | 128.57130 | 24577 ft | 469 kts | 28° |
| 2026-04-14 10:47 | 27.11784 | 128.59146 | 24815 ft | 471 kts | 28° |
| 2026-04-14 10:47 | 27.14523 | 128.61172 | 25055 ft | 472 kts | 28° |
| 2026-04-14 10:48 | 27.17273 | 128.63203 | 25294 ft | 474 kts | 28° |
| 2026-04-14 10:48 | 27.20036 | 128.65244 | 25530 ft | 476 kts | 28° |
| 2026-04-14 10:48 | 27.22773 | 128.67263 | 25762 ft | 478 kts | 28° |
| 2026-04-14 10:48 | 27.25554 | 128.69317 | 26044 ft | 479 kts | 28° |
| 2026-04-14 10:49 | 27.28335 | 128.71375 | 26369 ft | 479 kts | 28° |
| 2026-04-14 10:49 | 27.31116 | 128.73438 | 26691 ft | 478 kts | 28° |
| 2026-04-14 10:49 | 27.33896 | 128.75499 | 27019 ft | 478 kts | 28° |
| 2026-04-14 10:49 | 27.36672 | 128.77554 | 27343 ft | 478 kts | 28° |
| 2026-04-14 10:50 | 27.39449 | 128.79613 | 27662 ft | 478 kts | 28° |
| 2026-04-14 10:50 | 27.42188 | 128.81648 | 27966 ft | 478 kts | 28° |
| 2026-04-14 10:50 | 27.44963 | 128.83711 | 28326 ft | 478 kts | 28° |
| 2026-04-14 10:50 | 27.47732 | 128.85772 | 28724 ft | 477 kts | 27° |
| 2026-04-14 10:51 | 27.50503 | 128.87835 | 29091 ft | 477 kts | 27° |
| 2026-04-14 10:51 | 27.53275 | 128.89898 | 29469 ft | 477 kts | 28° |
| 2026-04-14 10:51 | 27.56044 | 128.91960 | 29797 ft | 477 kts | 28° |
| 2026-04-14 10:51 | 27.58814 | 128.94025 | 30095 ft | 477 kts | 28° |
| 2026-04-14 10:52 | 27.61581 | 128.96085 | 30373 ft | 477 kts | 27° |
| 2026-04-14 10:52 | 27.64349 | 128.98146 | 30643 ft | 477 kts | 28° |
| 2026-04-14 10:52 | 27.67117 | 129.00209 | 30917 ft | 477 kts | 28° |
| 2026-04-14 10:52 | 27.69856 | 129.02251 | 31081 ft | 480 kts | 28° |
| 2026-04-14 10:53 | 27.72650 | 129.04335 | 31200 ft | 484 kts | 28° |
| 2026-04-14 10:53 | 27.75468 | 129.06441 | 31319 ft | 488 kts | 28° |
| 2026-04-14 10:53 | 27.78303 | 129.08564 | 31439 ft | 491 kts | 28° |
| 2026-04-14 10:53 | 27.81159 | 129.10705 | 31551 ft | 494 kts | 28° |
| 2026-04-14 10:54 | 27.84030 | 129.12860 | 31688 ft | 497 kts | 28° |
| 2026-04-14 10:54 | 27.86920 | 129.15027 | 31808 ft | 500 kts | 28° |
| 2026-04-14 10:54 | 27.89823 | 129.17204 | 31931 ft | 502 kts | 28° |
| 2026-04-14 10:54 | 27.92700 | 129.19362 | 32091 ft | 504 kts | 28° |
| 2026-04-14 10:55 | 27.95621 | 129.21557 | 32298 ft | 504 kts | 28° |
| 2026-04-14 10:55 | 27.98542 | 129.23756 | 32522 ft | 504 kts | 28° |
| 2026-04-14 10:55 | 28.01459 | 129.25954 | 32764 ft | 504 kts | 28° |
| 2026-04-14 10:55 | 28.04377 | 129.28156 | 32995 ft | 504 kts | 28° |
| 2026-04-14 10:56 | 28.07293 | 129.30355 | 33227 ft | 504 kts | 28° |
| 2026-04-14 10:56 | 28.10206 | 129.32548 | 33453 ft | 504 kts | 28° |
| 2026-04-14 10:56 | 28.13127 | 129.34748 | 33678 ft | 504 kts | 28° |
| 2026-04-14 10:56 | 28.16003 | 129.36915 | 33894 ft | 504 kts | 28° |
| 2026-04-14 10:57 | 28.18919 | 129.39116 | 34118 ft | 504 kts | 28° |
| 2026-04-14 10:57 | 28.21833 | 129.41319 | 34305 ft | 504 kts | 28° |
| 2026-04-14 10:57 | 28.24746 | 129.43524 | 34516 ft | 503 kts | 28° |
| 2026-04-14 10:57 | 28.27666 | 129.45733 | 34690 ft | 504 kts | 28° |
| 2026-04-14 10:58 | 28.30581 | 129.47942 | 34847 ft | 504 kts | 28° |
| 2026-04-14 10:58 | 28.36439 | 129.52380 | 34908 ft | 511 kts | 28° |
| 2026-04-14 10:59 | 28.42601 | 129.56132 | 34903 ft | 497 kts | 8° |
| 2026-04-14 10:59 | 28.49259 | 129.58188 | 34887 ft | 496 kts | 7° |
| 2026-04-14 11:00 | 28.55932 | 129.60199 | 34901 ft | 497 kts | 7° |
| 2026-04-14 11:00 | 28.62608 | 129.62208 | 34911 ft | 496 kts | 7° |
| 2026-04-14 11:01 | 28.69276 | 129.64223 | 34917 ft | 496 kts | 7° |
| 2026-04-14 11:01 | 28.75906 | 129.66234 | 34929 ft | 496 kts | 7° |
| 2026-04-14 11:02 | 28.82580 | 129.68269 | 34939 ft | 496 kts | 7° |
| 2026-04-14 11:02 | 28.89248 | 129.70306 | 34938 ft | 496 kts | 7° |
| 2026-04-14 11:03 | 28.95922 | 129.72339 | 34935 ft | 496 kts | 7° |
| 2026-04-14 11:03 | 29.02550 | 129.74349 | 34948 ft | 496 kts | 7° |
| 2026-04-14 11:04 | 29.09222 | 129.76394 | 34941 ft | 497 kts | 7° |
| 2026-04-14 11:04 | 29.15900 | 129.78441 | 34937 ft | 497 kts | 7° |
| 2026-04-14 11:05 | 29.22575 | 129.80483 | 34946 ft | 497 kts | 6° |
| 2026-04-14 11:05 | 29.29220 | 129.82520 | 34938 ft | 497 kts | 6° |
| 2026-04-14 11:06 | 29.35897 | 129.84578 | 34934 ft | 497 kts | 7° |
| 2026-04-14 11:06 | 29.42581 | 129.86638 | 34930 ft | 498 kts | 6° |
| 2026-04-14 11:07 | 29.49280 | 129.88705 | 34915 ft | 499 kts | 6° |
| 2026-04-14 11:07 | 29.55998 | 129.90777 | 34909 ft | 500 kts | 6° |
| 2026-04-14 11:08 | 29.62672 | 129.92832 | 34910 ft | 501 kts | 6° |
| 2026-04-14 11:08 | 29.69405 | 129.94914 | 34918 ft | 501 kts | 6° |
| 2026-04-14 11:09 | 29.76141 | 129.97011 | 34922 ft | 501 kts | 6° |
| 2026-04-14 11:09 | 29.82865 | 129.99099 | 34941 ft | 501 kts | 6° |
| 2026-04-14 11:10 | 29.92926 | 130.02217 | 34942 ft | 501 kts | 6° |
| 2026-04-14 11:10 | 29.99662 | 130.04313 | 34955 ft | 501 kts | 6° |
| 2026-04-14 11:11 | 30.06386 | 130.06418 | 34935 ft | 501 kts | 6° |
| 2026-04-14 11:11 | 30.13107 | 130.08523 | 34930 ft | 500 kts | 6° |
| 2026-04-14 11:12 | 30.19830 | 130.10624 | 34946 ft | 500 kts | 6° |
| 2026-04-14 11:12 | 30.26503 | 130.12718 | 34938 ft | 500 kts | 6° |
| 2026-04-14 11:13 | 30.33209 | 130.14812 | 34936 ft | 499 kts | 6° |
| 2026-04-14 11:13 | 30.39924 | 130.16915 | 34934 ft | 499 kts | 5° |
| 2026-04-14 11:14 | 30.46611 | 130.19024 | 34926 ft | 499 kts | 5° |
| 2026-04-14 11:14 | 30.53263 | 130.21123 | 34923 ft | 498 kts | 5° |
| 2026-04-14 11:15 | 30.59960 | 130.23229 | 34938 ft | 499 kts | 5° |
| 2026-04-14 11:15 | 30.66654 | 130.25340 | 34922 ft | 499 kts | 5° |
| 2026-04-14 11:16 | 30.73352 | 130.27456 | 34915 ft | 499 kts | 5° |
| 2026-04-14 11:16 | 30.80001 | 130.29563 | 34946 ft | 499 kts | 5° |
| 2026-04-14 11:17 | 30.86704 | 130.31693 | 34932 ft | 499 kts | 5° |
| 2026-04-14 11:17 | 30.93402 | 130.33825 | 34926 ft | 499 kts | 5° |
| 2026-04-14 11:18 | 31.00098 | 130.35953 | 34938 ft | 499 kts | 5° |
| 2026-04-14 11:18 | 31.06798 | 130.38085 | 34932 ft | 499 kts | 5° |
| 2026-04-14 11:19 | 31.13449 | 130.40211 | 34927 ft | 499 kts | 5° |
| 2026-04-14 11:19 | 31.20136 | 130.42346 | 34925 ft | 498 kts | 4° |
| 2026-04-14 11:20 | 31.26822 | 130.44481 | 34916 ft | 498 kts | 4° |
| 2026-04-14 11:20 | 31.33500 | 130.46618 | 34950 ft | 498 kts | 4° |
| 2026-04-14 11:21 | 31.40182 | 130.48769 | 34932 ft | 498 kts | 4° |
| 2026-04-14 11:21 | 31.45728 | 130.50555 | 34936 ft | 496 kts | 4° |
| 2026-04-14 11:22 | 31.53470 | 130.53046 | 34927 ft | 496 kts | 4° |
| 2026-04-14 11:22 | 31.60123 | 130.55191 | 34922 ft | 496 kts | 4° |
| 2026-04-14 11:23 | 31.65663 | 130.56976 | 34931 ft | 497 kts | 4° |
| 2026-04-14 11:23 | 31.70080 | 130.58748 | 34932 ft | 511 kts | 15° |
| 2026-04-14 11:23 | 31.72182 | 130.60042 | 34957 ft | 522 kts | 21° |
| 2026-04-14 11:24 | 31.79382 | 130.65296 | 34940 ft | 524 kts | 22° |
| 2026-04-14 11:24 | 31.85562 | 130.69826 | 34935 ft | 524 kts | 22° |
| 2026-04-14 11:25 | 31.91755 | 130.74351 | 34952 ft | 524 kts | 21° |
| 2026-04-14 11:25 | 31.96906 | 130.78102 | 34951 ft | 524 kts | 21° |
| 2026-04-14 11:26 | 32.04106 | 130.83366 | 34978 ft | 524 kts | 21° |
| 2026-04-14 11:26 | 32.10302 | 130.87908 | 34953 ft | 524 kts | 21° |
| 2026-04-14 11:27 | 32.15446 | 130.91678 | 34936 ft | 524 kts | 21° |
| 2026-04-14 11:27 | 32.21664 | 130.96172 | 34964 ft | 524 kts | 20° |
| 2026-04-14 11:28 | 32.27895 | 131.00640 | 34971 ft | 524 kts | 20° |
| 2026-04-14 11:28 | 32.34112 | 131.05117 | 34963 ft | 524 kts | 21° |
| 2026-04-14 11:29 | 32.40329 | 131.09626 | 34985 ft | 524 kts | 20° |
| 2026-04-14 11:29 | 32.46478 | 131.14153 | 34951 ft | 524 kts | 21° |
| 2026-04-14 11:30 | 32.52648 | 131.18761 | 34994 ft | 524 kts | 21° |
| 2026-04-14 11:30 | 32.58813 | 131.23371 | 34972 ft | 523 kts | 21° |
| 2026-04-14 11:31 | 32.64970 | 131.27958 | 34974 ft | 523 kts | 21° |
| 2026-04-14 11:31 | 32.71089 | 131.32512 | 34985 ft | 523 kts | 21° |
| 2026-04-14 11:32 | 32.77241 | 131.37116 | 34961 ft | 523 kts | 21° |
| 2026-04-14 11:32 | 32.83387 | 131.41730 | 34996 ft | 522 kts | 21° |
| 2026-04-14 11:33 | 32.89553 | 131.46291 | 34984 ft | 521 kts | 20° |
| 2026-04-14 11:34 | 32.98750 | 131.53034 | 34996 ft | 520 kts | 20° |
| 2026-04-14 11:34 | 33.04889 | 131.57577 | 34976 ft | 519 kts | 20° |
| 2026-04-14 11:35 | 33.11019 | 131.62127 | 34978 ft | 519 kts | 20° |
| 2026-04-14 11:35 | 33.17152 | 131.66692 | 34971 ft | 519 kts | 20° |
| 2026-04-14 11:36 | 33.23342 | 131.71001 | 34975 ft | 504 kts | 11° |
| 2026-04-14 11:36 | 33.29714 | 131.74271 | 34995 ft | 501 kts | 11° |
| 2026-04-14 11:37 | 33.36122 | 131.77544 | 34974 ft | 501 kts | 11° |
| 2026-04-14 11:37 | 33.42522 | 131.80825 | 34962 ft | 500 kts | 11° |
| 2026-04-14 11:38 | 33.48907 | 131.84124 | 34970 ft | 499 kts | 11° |
| 2026-04-14 11:38 | 33.55277 | 131.87418 | 34967 ft | 498 kts | 11° |
| 2026-04-14 11:39 | 33.61595 | 131.90673 | 34969 ft | 497 kts | 11° |
| 2026-04-14 11:39 | 33.67948 | 131.93950 | 34992 ft | 497 kts | 11° |
| 2026-04-14 11:40 | 33.74292 | 131.97236 | 34987 ft | 497 kts | 11° |
| 2026-04-14 11:40 | 33.80639 | 132.00529 | 35006 ft | 496 kts | 11° |
| 2026-04-14 11:41 | 33.86936 | 132.03790 | 34999 ft | 495 kts | 11° |
| 2026-04-14 11:41 | 33.93258 | 132.07072 | 35000 ft | 495 kts | 11° |
| 2026-04-14 11:42 | 33.99576 | 132.10357 | 35015 ft | 494 kts | 11° |
| 2026-04-14 11:42 | 34.05883 | 132.13677 | 35004 ft | 498 kts | 15° |
| 2026-04-14 11:42 | 34.08868 | 132.15817 | 34996 ft | 515 kts | 25° |
| 2026-04-14 11:43 | 34.11669 | 132.18588 | 35008 ft | 523 kts | 31° |
| 2026-04-14 11:43 | 34.17127 | 132.24362 | 34980 ft | 522 kts | 31° |
| 2026-04-14 11:44 | 34.22579 | 132.30131 | 34984 ft | 522 kts | 31° |
| 2026-04-14 11:44 | 34.28063 | 132.35925 | 35016 ft | 522 kts | 31° |
| 2026-04-14 11:45 | 34.33494 | 132.41668 | 34998 ft | 522 kts | 31° |
| 2026-04-14 11:45 | 34.38958 | 132.47450 | 35022 ft | 522 kts | 31° |
| 2026-04-14 11:46 | 34.44411 | 132.53246 | 35014 ft | 521 kts | 31° |
| 2026-04-14 11:46 | 34.49862 | 132.59046 | 35046 ft | 521 kts | 31° |
| 2026-04-14 11:47 | 34.55252 | 132.64795 | 35006 ft | 519 kts | 31° |
| 2026-04-14 11:47 | 34.60674 | 132.70590 | 35007 ft | 519 kts | 31° |
| 2026-04-14 11:48 | 34.66095 | 132.76393 | 35007 ft | 520 kts | 31° |
| 2026-04-14 11:48 | 34.71515 | 132.82208 | 35006 ft | 519 kts | 31° |
| 2026-04-14 11:49 | 34.76930 | 132.88015 | 35035 ft | 519 kts | 32° |
| 2026-04-14 11:49 | 34.82335 | 132.93819 | 35028 ft | 518 kts | 32° |
| 2026-04-14 11:50 | 34.87703 | 132.99605 | 35024 ft | 518 kts | 32° |
| 2026-04-14 11:50 | 34.93090 | 133.05427 | 35038 ft | 518 kts | 32° |
| 2026-04-14 11:51 | 35.01172 | 133.14159 | 35046 ft | 517 kts | 32° |
| 2026-04-14 11:51 | 35.06545 | 133.19972 | 35034 ft | 516 kts | 33° |
| 2026-04-14 11:52 | 35.11875 | 133.25759 | 35021 ft | 516 kts | 33° |
| 2026-04-14 11:52 | 35.17243 | 133.31591 | 35026 ft | 516 kts | 33° |
| 2026-04-14 11:53 | 35.22603 | 133.37432 | 35018 ft | 516 kts | 33° |
| 2026-04-14 11:53 | 35.27962 | 133.43285 | 35031 ft | 516 kts | 33° |
| 2026-04-14 11:54 | 35.33320 | 133.49143 | 35019 ft | 516 kts | 33° |
| 2026-04-14 11:54 | 35.38645 | 133.54969 | 35058 ft | 517 kts | 33° |
| 2026-04-14 11:55 | 35.41311 | 133.57898 | 35329 ft | 513 kts | 33° |
| 2026-04-14 11:55 | 35.43966 | 133.60821 | 35585 ft | 512 kts | 33° |
| 2026-04-14 11:55 | 35.46618 | 133.63739 | 35735 ft | 513 kts | 33° |
| 2026-04-14 11:55 | 35.49279 | 133.66663 | 35852 ft | 515 kts | 33° |
| 2026-04-14 11:56 | 35.51949 | 133.69599 | 36009 ft | 516 kts | 32° |
| 2026-04-14 11:56 | 35.54623 | 133.72540 | 36156 ft | 517 kts | 32° |
| 2026-04-14 11:56 | 35.57299 | 133.75488 | 36278 ft | 517 kts | 32° |
| 2026-04-14 11:56 | 35.59980 | 133.78446 | 36423 ft | 518 kts | 32° |
| 2026-04-14 11:57 | 35.62628 | 133.81368 | 36540 ft | 519 kts | 32° |
| 2026-04-14 11:57 | 35.65314 | 133.84339 | 36693 ft | 520 kts | 32° |
| 2026-04-14 11:57 | 35.68001 | 133.87317 | 36819 ft | 520 kts | 32° |
| 2026-04-14 11:57 | 35.70686 | 133.90297 | 36974 ft | 521 kts | 32° |
| 2026-04-14 11:58 | 35.76078 | 133.96290 | 37034 ft | 523 kts | 32° |
| 2026-04-14 11:58 | 35.81439 | 134.02253 | 37017 ft | 523 kts | 32° |
| 2026-04-14 11:59 | 35.86836 | 134.08273 | 37016 ft | 523 kts | 32° |
| 2026-04-14 11:59 | 35.92231 | 134.14305 | 37016 ft | 523 kts | 32° |
| 2026-04-14 12:00 | 35.97624 | 134.20327 | 37020 ft | 523 kts | 32° |
| 2026-04-14 12:00 | 36.03020 | 134.26363 | 37056 ft | 523 kts | 32° |
| 2026-04-14 12:01 | 36.08374 | 134.32371 | 37042 ft | 523 kts | 32° |
| 2026-04-14 12:01 | 36.13758 | 134.38441 | 37057 ft | 523 kts | 33° |
| 2026-04-14 12:02 | 36.19131 | 134.44511 | 37046 ft | 523 kts | 33° |
| 2026-04-14 12:02 | 36.24302 | 134.50833 | 37067 ft | 535 kts | 44° |
| 2026-04-14 12:03 | 36.28401 | 134.58634 | 37053 ft | 543 kts | 52° |
| 2026-04-14 12:03 | 36.32326 | 134.66625 | 37031 ft | 543 kts | 52° |
| 2026-04-14 12:04 | 36.36255 | 134.74624 | 37046 ft | 543 kts | 52° |
| 2026-04-14 12:04 | 36.40183 | 134.82622 | 37039 ft | 542 kts | 52° |
| 2026-04-14 12:05 | 36.44076 | 134.90568 | 37052 ft | 542 kts | 52° |
| 2026-04-14 12:05 | 36.47990 | 134.98568 | 37042 ft | 542 kts | 52° |
| 2026-04-14 12:06 | 36.51890 | 135.06582 | 37035 ft | 542 kts | 52° |
| 2026-04-14 12:06 | 36.55780 | 135.14604 | 37057 ft | 541 kts | 52° |
| 2026-04-14 12:07 | 36.59661 | 135.22618 | 37053 ft | 540 kts | 52° |
| 2026-04-14 12:07 | 36.63508 | 135.30575 | 37054 ft | 540 kts | 53° |
| 2026-04-14 12:08 | 36.67371 | 135.38582 | 37050 ft | 539 kts | 53° |
| 2026-04-14 12:08 | 36.71225 | 135.46589 | 37044 ft | 539 kts | 53° |
| 2026-04-14 12:09 | 36.75074 | 135.54598 | 37055 ft | 538 kts | 53° |
| 2026-04-14 12:09 | 36.78882 | 135.62553 | 37050 ft | 538 kts | 53° |
| 2026-04-14 12:10 | 36.82711 | 135.70576 | 37068 ft | 538 kts | 53° |
| 2026-04-14 12:10 | 36.86539 | 135.78593 | 37058 ft | 537 kts | 53° |
| 2026-04-14 12:11 | 36.90353 | 135.86607 | 37062 ft | 537 kts | 53° |
| 2026-04-14 12:11 | 36.94132 | 135.94580 | 37051 ft | 537 kts | 53° |
| 2026-04-14 12:12 | 36.97929 | 136.02608 | 37059 ft | 536 kts | 53° |
| 2026-04-14 12:12 | 37.01720 | 136.10646 | 37080 ft | 536 kts | 53° |
| 2026-04-14 12:13 | 37.05507 | 136.18687 | 37064 ft | 536 kts | 53° |
| 2026-04-14 12:13 | 37.09264 | 136.26677 | 37060 ft | 536 kts | 53° |
| 2026-04-14 12:14 | 37.13035 | 136.34734 | 37072 ft | 536 kts | 54° |
| 2026-04-14 12:14 | 37.16806 | 136.42787 | 37067 ft | 536 kts | 54° |
| 2026-04-14 12:15 | 37.20570 | 136.50855 | 37091 ft | 536 kts | 54° |
| 2026-04-14 12:15 | 37.24321 | 136.58935 | 37085 ft | 536 kts | 54° |
| 2026-04-14 12:16 | 37.28042 | 136.66955 | 37080 ft | 535 kts | 54° |
| 2026-04-14 12:16 | 37.31797 | 136.75061 | 37056 ft | 539 kts | 54° |
| 2026-04-14 12:17 | 37.35569 | 136.83225 | 37062 ft | 541 kts | 54° |
| 2026-04-14 12:17 | 37.39337 | 136.91412 | 37058 ft | 541 kts | 54° |
| 2026-04-14 12:18 | 37.43018 | 136.99417 | 37059 ft | 540 kts | 54° |
| 2026-04-14 12:18 | 37.46771 | 137.07608 | 37063 ft | 541 kts | 54° |
| 2026-04-14 12:19 | 37.50526 | 137.15816 | 37087 ft | 541 kts | 55° |
| 2026-04-14 12:19 | 37.54277 | 137.24029 | 37089 ft | 541 kts | 55° |
| 2026-04-14 12:20 | 37.58017 | 137.32266 | 37092 ft | 541 kts | 55° |
| 2026-04-14 12:20 | 37.61723 | 137.40456 | 37106 ft | 541 kts | 55° |
| 2026-04-14 12:21 | 37.65451 | 137.48697 | 37096 ft | 540 kts | 55° |
| 2026-04-14 12:21 | 37.69174 | 137.56929 | 37104 ft | 540 kts | 55° |
| 2026-04-14 12:22 | 37.72882 | 137.65167 | 37092 ft | 539 kts | 55° |
| 2026-04-14 12:22 | 37.76564 | 137.73352 | 37088 ft | 539 kts | 55° |
| 2026-04-14 12:23 | 37.80262 | 137.81601 | 37092 ft | 539 kts | 55° |
| 2026-04-14 12:23 | 37.83948 | 137.89863 | 37087 ft | 539 kts | 56° |
| 2026-04-14 12:24 | 37.87630 | 137.98132 | 37085 ft | 539 kts | 55° |
| 2026-04-14 12:24 | 37.91288 | 138.06345 | 37085 ft | 539 kts | 56° |
| 2026-04-14 12:25 | 37.94961 | 138.14630 | 37086 ft | 540 kts | 56° |
| 2026-04-14 12:25 | 37.98629 | 138.22935 | 37111 ft | 540 kts | 56° |
| 2026-04-14 12:26 | 38.02294 | 138.31235 | 37100 ft | 539 kts | 56° |
| 2026-04-14 12:26 | 38.06322 | 138.39091 | 37096 ft | 528 kts | 42° |
| 2026-04-14 12:27 | 38.11676 | 138.45148 | 37106 ft | 507 kts | 24° |
| 2026-04-14 12:27 | 38.17601 | 138.49985 | 37103 ft | 506 kts | 24° |
| 2026-04-14 12:28 | 38.23521 | 138.54849 | 37102 ft | 507 kts | 24° |
| 2026-04-14 12:28 | 38.29398 | 138.59685 | 37102 ft | 507 kts | 24° |
| 2026-04-14 12:29 | 38.35316 | 138.64557 | 37094 ft | 506 kts | 24° |
| 2026-04-14 12:29 | 38.41228 | 138.69435 | 37102 ft | 506 kts | 24° |
| 2026-04-14 12:30 | 38.47140 | 138.74327 | 37110 ft | 506 kts | 24° |
| 2026-04-14 12:30 | 38.52997 | 138.79187 | 37096 ft | 506 kts | 24° |
| 2026-04-14 12:31 | 38.58898 | 138.84092 | 37101 ft | 506 kts | 24° |
| 2026-04-14 12:31 | 38.64797 | 138.89000 | 37097 ft | 506 kts | 24° |
| 2026-04-14 12:32 | 38.70701 | 138.93916 | 37092 ft | 506 kts | 24° |
| 2026-04-14 12:32 | 38.76567 | 138.98802 | 37114 ft | 506 kts | 24° |
| 2026-04-14 12:33 | 38.82468 | 139.03735 | 37101 ft | 506 kts | 25° |
| 2026-04-14 12:33 | 38.88357 | 139.08675 | 37098 ft | 506 kts | 25° |
| 2026-04-14 12:34 | 38.94239 | 139.13624 | 37094 ft | 505 kts | 25° |
| 2026-04-14 12:34 | 39.00079 | 139.18538 | 37086 ft | 505 kts | 25° |
| 2026-04-14 12:35 | 39.05953 | 139.23488 | 37101 ft | 505 kts | 25° |
| 2026-04-14 12:35 | 39.11823 | 139.28452 | 37098 ft | 505 kts | 25° |
| 2026-04-14 12:36 | 39.17686 | 139.33434 | 37104 ft | 504 kts | 25° |
| 2026-04-14 12:36 | 39.23545 | 139.38406 | 37094 ft | 504 kts | 25° |
| 2026-04-14 12:37 | 39.29356 | 139.43348 | 37089 ft | 503 kts | 25° |
| 2026-04-14 12:37 | 39.35203 | 139.48326 | 37088 ft | 503 kts | 25° |
| 2026-04-14 12:38 | 39.43972 | 139.55816 | 37086 ft | 504 kts | 25° |
| 2026-04-14 12:39 | 39.49779 | 139.60793 | 37105 ft | 504 kts | 25° |
| 2026-04-14 12:39 | 39.55619 | 139.65809 | 37097 ft | 504 kts | 25° |
| 2026-04-14 12:40 | 39.61459 | 139.70837 | 37089 ft | 503 kts | 25° |
| 2026-04-14 12:40 | 39.67290 | 139.75860 | 37108 ft | 503 kts | 25° |
| 2026-04-14 12:41 | 39.73084 | 139.80860 | 37102 ft | 503 kts | 25° |
| 2026-04-14 12:41 | 39.78905 | 139.85895 | 37091 ft | 503 kts | 25° |
| 2026-04-14 12:42 | 39.84726 | 139.90956 | 37104 ft | 503 kts | 25° |
| 2026-04-14 12:42 | 39.90528 | 139.96058 | 37095 ft | 503 kts | 25° |
| 2026-04-14 12:43 | 39.96503 | 140.00570 | 37097 ft | 494 kts | 18° |
| 2026-04-14 12:43 | 40.02596 | 140.04704 | 37106 ft | 493 kts | 18° |
| 2026-04-14 12:44 | 40.08645 | 140.08799 | 37099 ft | 493 kts | 18° |
| 2026-04-14 12:44 | 40.14737 | 140.12930 | 37099 ft | 493 kts | 18° |
| 2026-04-14 12:45 | 40.23868 | 140.19147 | 37107 ft | 493 kts | 18° |
| 2026-04-14 12:45 | 40.29914 | 140.23273 | 37124 ft | 493 kts | 18° |
| 2026-04-14 12:46 | 40.36000 | 140.27445 | 37129 ft | 494 kts | 18° |
| 2026-04-14 12:46 | 40.42081 | 140.31625 | 37123 ft | 494 kts | 18° |
| 2026-04-14 12:47 | 40.48166 | 140.35806 | 37122 ft | 494 kts | 18° |
| 2026-04-14 12:47 | 40.54248 | 140.39989 | 37134 ft | 493 kts | 18° |
| 2026-04-14 12:48 | 40.60285 | 140.44149 | 37148 ft | 493 kts | 18° |
| 2026-04-14 12:48 | 40.66356 | 140.48351 | 37137 ft | 493 kts | 18° |
| 2026-04-14 12:49 | 40.69393 | 140.50452 | 36871 ft | 496 kts | 18° |
| 2026-04-14 12:49 | 40.72439 | 140.52566 | 36566 ft | 493 kts | 18° |
| 2026-04-14 12:49 | 40.75471 | 140.54680 | 36308 ft | 491 kts | 18° |
| 2026-04-14 12:49 | 40.78479 | 140.56781 | 36055 ft | 489 kts | 18° |
| 2026-04-14 12:50 | 40.81485 | 140.58877 | 35799 ft | 488 kts | 17° |
| 2026-04-14 12:50 | 40.87457 | 140.63030 | 35369 ft | 489 kts | 17° |
| 2026-04-14 12:50 | 40.90469 | 140.65128 | 35122 ft | 489 kts | 17° |
| 2026-04-14 12:51 | 40.93480 | 140.67229 | 34881 ft | 490 kts | 17° |
| 2026-04-14 12:51 | 40.96495 | 140.69334 | 34641 ft | 489 kts | 17° |
| 2026-04-14 12:51 | 40.99469 | 140.71427 | 34425 ft | 478 kts | 17° |
| 2026-04-14 12:51 | 41.02365 | 140.73479 | 34288 ft | 466 kts | 16° |
| 2026-04-14 12:52 | 41.05200 | 140.75487 | 34051 ft | 459 kts | 16° |
| 2026-04-14 12:52 | 41.08019 | 140.77468 | 33472 ft | 458 kts | 15° |
| 2026-04-14 12:52 | 41.10795 | 140.79407 | 32791 ft | 456 kts | 16° |
| 2026-04-14 12:52 | 41.13596 | 140.81363 | 32120 ft | 454 kts | 16° |
| 2026-04-14 12:53 | 41.16382 | 140.83311 | 31466 ft | 451 kts | 16° |
| 2026-04-14 12:53 | 41.19148 | 140.85255 | 30840 ft | 449 kts | 16° |
| 2026-04-14 12:53 | 41.21895 | 140.87192 | 30216 ft | 446 kts | 17° |
| 2026-04-14 12:53 | 41.24623 | 140.89122 | 29500 ft | 443 kts | 17° |
| 2026-04-14 12:54 | 41.27334 | 140.91041 | 28774 ft | 440 kts | 17° |
| 2026-04-14 12:54 | 41.30029 | 140.92948 | 28064 ft | 437 kts | 18° |
| 2026-04-14 12:54 | 41.32696 | 140.94836 | 27383 ft | 433 kts | 18° |
| 2026-04-14 12:54 | 41.35311 | 140.96690 | 26712 ft | 429 kts | 19° |
| 2026-04-14 12:55 | 41.37928 | 140.98551 | 26059 ft | 425 kts | 19° |
| 2026-04-14 12:55 | 41.40523 | 141.00398 | 25467 ft | 420 kts | 19° |
| 2026-04-14 12:55 | 41.43087 | 141.02221 | 24902 ft | 416 kts | 20° |
| 2026-04-14 12:55 | 41.45628 | 141.04027 | 24336 ft | 411 kts | 20° |
| 2026-04-14 12:56 | 41.48134 | 141.05811 | 23790 ft | 406 kts | 20° |
| 2026-04-14 12:56 | 41.50613 | 141.07579 | 23147 ft | 402 kts | 21° |
| 2026-04-14 12:56 | 41.53067 | 141.09330 | 22488 ft | 398 kts | 21° |
| 2026-04-14 12:56 | 41.55498 | 141.11063 | 21848 ft | 395 kts | 21° |
| 2026-04-14 12:57 | 41.57915 | 141.12787 | 21221 ft | 392 kts | 21° |
| 2026-04-14 12:57 | 41.60279 | 141.14476 | 20624 ft | 390 kts | 21° |
| 2026-04-14 12:57 | 41.62660 | 141.16179 | 20024 ft | 387 kts | 21° |
| 2026-04-14 12:57 | 41.65031 | 141.17877 | 19434 ft | 385 kts | 21° |
| 2026-04-14 12:58 | 41.67386 | 141.19565 | 18864 ft | 383 kts | 22° |
| 2026-04-14 12:58 | 41.69731 | 141.21247 | 18271 ft | 382 kts | 22° |
| 2026-04-14 12:58 | 41.72067 | 141.22927 | 17619 ft | 380 kts | 22° |
| 2026-04-14 12:58 | 41.74392 | 141.24598 | 16986 ft | 379 kts | 22° |
| 2026-04-14 12:59 | 41.76709 | 141.26262 | 16363 ft | 377 kts | 22° |
| 2026-04-14 12:59 | 41.78986 | 141.27898 | 15786 ft | 376 kts | 21° |
| 2026-04-14 12:59 | 41.81282 | 141.29550 | 15174 ft | 374 kts | 21° |
| 2026-04-14 12:59 | 41.83572 | 141.31199 | 14601 ft | 372 kts | 21° |
| 2026-04-14 13:00 | 41.85846 | 141.32836 | 14024 ft | 370 kts | 22° |
| 2026-04-14 13:00 | 41.88106 | 141.34469 | 13387 ft | 368 kts | 22° |
| 2026-04-14 13:00 | 41.90349 | 141.36093 | 12759 ft | 365 kts | 22° |
| 2026-04-14 13:00 | 41.92573 | 141.37704 | 12279 ft | 358 kts | 23° |
| 2026-04-14 13:01 | 41.94725 | 141.39268 | 12021 ft | 346 kts | 23° |
| 2026-04-14 13:01 | 41.96808 | 141.40787 | 11765 ft | 335 kts | 23° |
| 2026-04-14 13:01 | 41.98795 | 141.42233 | 11521 ft | 325 kts | 22° |
| 2026-04-14 13:01 | 42.00879 | 141.43621 | 11284 ft | 343 kts | 20° |
| 2026-04-14 13:02 | 42.03035 | 141.44929 | 11064 ft | 333 kts | 19° |
| 2026-04-14 13:02 | 42.05112 | 141.46138 | 10932 ft | 318 kts | 18° |
| 2026-04-14 13:02 | 42.07104 | 141.47286 | 10772 ft | 306 kts | 18° |
| 2026-04-14 13:02 | 42.09042 | 141.48405 | 10428 ft | 301 kts | 18° |
| 2026-04-14 13:03 | 42.10961 | 141.49523 | 10034 ft | 299 kts | 19° |
| 2026-04-14 13:03 | 42.12863 | 141.50641 | 9594 ft | 297 kts | 19° |
| 2026-04-14 13:03 | 42.14751 | 141.51760 | 9152 ft | 295 kts | 19° |
| 2026-04-14 13:03 | 42.16596 | 141.52860 | 8723 ft | 293 kts | 20° |
| 2026-04-14 13:04 | 42.18449 | 141.53968 | 8310 ft | 290 kts | 20° |
| 2026-04-14 13:04 | 42.20286 | 141.55067 | 7884 ft | 287 kts | 20° |
| 2026-04-14 13:04 | 42.22104 | 141.56156 | 7453 ft | 285 kts | 20° |
| 2026-04-14 13:04 | 42.23907 | 141.57233 | 7023 ft | 282 kts | 20° |
| 2026-04-14 13:05 | 42.25697 | 141.58304 | 6594 ft | 280 kts | 20° |
| 2026-04-14 13:05 | 42.27470 | 141.59366 | 6141 ft | 278 kts | 20° |
| 2026-04-14 13:05 | 42.29224 | 141.60418 | 5967 ft | 276 kts | 20° |
| 2026-04-14 13:05 | 42.30975 | 141.61469 | 5809 ft | 275 kts | 20° |
| 2026-04-14 13:06 | 42.32728 | 141.62520 | 5541 ft | 275 kts | 20° |
| 2026-04-14 13:06 | 42.34477 | 141.63568 | 5285 ft | 274 kts | 21° |
| 2026-04-14 13:06 | 42.36191 | 141.64597 | 5035 ft | 273 kts | 21° |
| 2026-04-14 13:06 | 42.37921 | 141.65638 | 4777 ft | 271 kts | 21° |
| 2026-04-14 13:07 | 42.39636 | 141.66673 | 4511 ft | 269 kts | 21° |
| 2026-04-14 13:07 | 42.41338 | 141.67699 | 4251 ft | 267 kts | 21° |
| 2026-04-14 13:07 | 42.43016 | 141.68710 | 3981 ft | 260 kts | 21° |
| 2026-04-14 13:07 | 42.44648 | 141.69696 | 3730 ft | 253 kts | 21° |
| 2026-04-14 13:08 | 42.46237 | 141.70655 | 3470 ft | 247 kts | 21° |
| 2026-04-14 13:08 | 42.47791 | 141.71592 | 3210 ft | 242 kts | 22° |
| 2026-04-14 13:08 | 42.49306 | 141.72505 | 3015 ft | 233 kts | 22° |
| 2026-04-14 13:08 | 42.50768 | 141.73384 | 2968 ft | 229 kts | 20° |
| 2026-04-14 13:09 | 42.52286 | 141.73805 | 2972 ft | 226 kts | 356° |
| 2026-04-14 13:09 | 42.53846 | 141.73572 | 2972 ft | 226 kts | 350° |
| 2026-04-14 13:09 | 42.55402 | 141.73293 | 2968 ft | 226 kts | 351° |
| 2026-04-14 13:09 | 42.56960 | 141.73019 | 2967 ft | 226 kts | 351° |
| 2026-04-14 13:10 | 42.58511 | 141.72748 | 2963 ft | 220 kts | 351° |
| 2026-04-14 13:10 | 42.59978 | 141.72492 | 2959 ft | 206 kts | 351° |
| 2026-04-14 13:10 | 42.61345 | 141.72254 | 2948 ft | 193 kts | 351° |
| 2026-04-14 13:10 | 42.62654 | 141.72024 | 2814 ft | 188 kts | 351° |
| 2026-04-14 13:11 | 42.63930 | 141.71800 | 2563 ft | 180 kts | 351° |
| 2026-04-14 13:11 | 42.65135 | 141.71589 | 2319 ft | 170 kts | 352° |
| 2026-04-14 13:11 | 42.66274 | 141.71389 | 2110 ft | 159 kts | 352° |
| 2026-04-14 13:11 | 42.67309 | 141.71208 | 1891 ft | 146 kts | 353° |
| 2026-04-14 13:12 | 42.68298 | 141.71034 | 1691 ft | 142 kts | 353° |
| 2026-04-14 13:12 | 42.69267 | 141.70864 | 1492 ft | 139 kts | 353° |
| 2026-04-14 13:12 | 42.70226 | 141.70696 | 1300 ft | 138 kts | 353° |
| 2026-04-14 13:12 | 42.71180 | 141.70528 | 1103 ft | 138 kts | 353° |
| 2026-04-14 13:13 | 42.72128 | 141.70362 | 907 ft | 137 kts | 353° |
| 2026-04-14 13:13 | 42.73074 | 141.70195 | 716 ft | 137 kts | 352° |
| 2026-04-14 13:13 | 42.74015 | 141.70023 | 519 ft | 136 kts | 352° |
| 2026-04-14 13:13 | 42.74940 | 141.69862 | 333 ft | 135 kts | 353° |
| 2026-04-14 13:14 | 42.75878 | 141.69702 | 180 ft | 135 kts | 352° |
| 2026-04-14 13:14 | 42.76791 | 141.69541 | 44 ft | 117 kts | 352° |
| 2026-04-14 13:14 | 42.77298 | 141.69449 | 50 ft | 30 kts | 353° |
| 2026-04-14 13:14 | 42.77468 | 141.69421 | 49 ft | 23 kts | 353° |
| 2026-04-14 13:15 | 42.77620 | 141.69394 | 42 ft | 22 kts | 346° |
| 2026-04-14 13:15 | 42.77768 | 141.69321 | 45 ft | 23 kts | 329° |
| 2026-04-14 13:15 | 42.77902 | 141.69192 | 38 ft | 24 kts | 323° |
| 2026-04-14 13:15 | 42.78036 | 141.69056 | 43 ft | 24 kts | 321° |
| 2026-04-14 13:16 | 42.78159 | 141.68922 | 50 ft | 23 kts | 323° |
| 2026-04-14 13:16 | 42.78292 | 141.68785 | 39 ft | 26 kts | 322° |
| 2026-04-14 13:16 | 42.78446 | 141.68655 | 38 ft | 27 kts | 351° |
| 2026-04-14 13:16 | 42.78631 | 141.68621 | 37 ft | 27 kts | 352° |
| 2026-04-14 13:17 | 42.78822 | 141.68591 | 43 ft | 28 kts | 352° |
| 2026-04-14 13:17 | 42.79004 | 141.68497 | 39 ft | 29 kts | 332° |
| 2026-04-14 13:17 | 42.79155 | 141.68320 | 37 ft | 29 kts | 308° |
| 2026-04-14 13:17 | 42.79249 | 141.68073 | 43 ft | 30 kts | 286° |
| 2026-04-14 13:18 | 42.79230 | 141.67888 | 40 ft | 18 kts | 203° |
| 2026-04-14 13:18 | 42.79130 | 141.67823 | 41 ft | 12 kts | 219° |
| 2026-04-14 13:18 | 42.79075 | 141.67819 | 43 ft | 5 kts | 172° |
| 2026-04-14 13:18 | 42.79062 | 141.67822 | 38 ft | 0 kts | 173° |
| 2026-04-14 13:19 | 42.79061 | 141.67822 | 38 ft | 1 kts | 173° |
| 2026-04-14 13:19 | 42.79052 | 141.67823 | 41 ft | 1 kts | 173° |
| 2026-04-14 13:19 | 42.79037 | 141.67826 | 35 ft | 2 kts | 173° |
| 2026-04-14 13:19 | 42.79030 | 141.67827 | 37 ft | 0 kts | 173° |